Time;durP1;ratioP1;P1;durP2;ratioP2;P2;SDS_P1;SDS_P2;PMS_P1;PMS_P2;Temp;Humidity;BMP_temperature;BMP_pressure;BME280_temperature;BME280_humidity;BME280_pressure;Samples;Min_cycle;Max_cycle;Signal;HPM_P1;HPM_P2
2022/01/05 00:02:07;;;;;;;;;;;4.30;99.90;;;;;;5074899;28;20366;-59
2022/01/05 00:04:33;;;;;;;;;;;4.30;99.90;;;;;;5074132;28;19919;-59
2022/01/05 00:06:59;;;;;;;;;;;4.30;99.90;;;;;;5073750;28;19956;-59
2022/01/05 00:09:24;;;;;;;;;;;4.30;99.90;;;;;;5056653;28;19979;-60
2022/01/05 00:11:49;;;;;;;;;;;4.20;99.90;;;;;;5073345;28;19932;-59
2022/01/05 00:14:15;;;;;;;;;;;4.20;99.90;;;;;;5074909;28;19923;-60
2022/01/05 00:16:41;;;;;;;;;;;4.20;99.90;;;;;;5074902;28;19950;-60
2022/01/05 00:19:06;;;;;;;;;;;4.20;99.90;;;;;;5072762;28;19916;-60
2022/01/05 00:21:32;;;;;;;;;;;4.10;99.90;;;;;;5074152;28;19913;-60
2022/01/05 00:23:58;;;;;;;;;;;4.00;99.90;;;;;;5076316;28;20292;-60
2022/01/05 00:26:25;;;;;;;;;;;4.00;99.90;;;;;;5074154;28;19912;-59
2022/01/05 00:28:50;;;;;;;;;;;4.00;99.90;;;;;;5074326;28;19912;-60
2022/01/05 00:31:16;;;;;;;;;;;4.00;99.90;;;;;;5072447;28;19916;-60
2022/01/05 00:33:41;;;;;;;;;;;3.90;99.90;;;;;;5073516;28;20454;-59
2022/01/05 00:36:07;;;;;;;;;;;4.00;99.90;;;;;;5073736;28;19958;-59
2022/01/05 00:38:34;;;;;;;;;;;4.00;99.90;;;;;;5074346;28;20333;-60
2022/01/05 00:41:00;;;;;;;;;;;3.90;99.90;;;;;;5074091;28;19943;-59
2022/01/05 00:43:25;;;;;;;;;;;3.90;99.90;;;;;;5072497;28;20352;-60
2022/01/05 00:45:51;;;;;;;;;;;3.90;99.90;;;;;;5074026;28;20292;-60
2022/01/05 00:48:16;;;;;;;;;;;3.90;99.90;;;;;;5073836;28;20503;-59
2022/01/05 00:50:42;;;;;;;;;;;3.90;99.90;;;;;;5072510;28;19912;-59
2022/01/05 00:53:07;;;;;;;;;;;3.90;99.90;;;;;;5073383;28;19921;-60
2022/01/05 00:55:33;;;;;;;;;;;3.90;99.90;;;;;;5073486;28;20007;-59
2022/01/05 00:57:58;;;;;;;;;;;4.00;99.90;;;;;;5072778;28;19915;-60
2022/01/05 01:00:24;;;;;;;;;;;3.90;99.90;;;;;;5073807;28;19924;-60
2022/01/05 01:02:49;;;;;;;;;;;3.90;99.90;;;;;;5073596;28;19955;-59
2022/01/05 01:05:15;;;;;;;;;;;3.90;99.90;;;;;;5073721;28;19952;-60
2022/01/05 01:07:41;;;;;;;;;;;3.90;99.90;;;;;;5073908;28;19923;-60
2022/01/05 01:10:07;;;;;;;;;;;3.80;99.90;;;;;;5071413;28;19978;-59
2022/01/05 01:12:34;;;;;;;;;;;3.90;99.90;;;;;;5072110;28;20007;-60
2022/01/05 01:15:02;;;;;;;;;;;3.80;99.90;;;;;;5073907;28;19912;-60
2022/01/05 01:17:27;;;;;;;;;;;3.80;99.90;;;;;;5055501;28;19916;-60
2022/01/05 01:19:53;;;;;;;;;;;3.80;99.90;;;;;;5073641;28;19995;-59
2022/01/05 01:22:18;;;;;;;;;;;3.80;99.90;;;;;;5071397;28;19908;-61
2022/01/05 01:24:44;;;;;;;;;;;3.80;99.90;;;;;;5073754;28;19909;-60
2022/01/05 01:27:09;;;;;;;;;;;3.80;99.90;;;;;;5073250;28;20067;-60
2022/01/05 01:29:35;;;;;;;;;;;3.80;99.90;;;;;;5072235;28;20454;-59
2022/01/05 01:32:01;;;;;;;;;;;3.70;99.90;;;;;;5073485;28;19912;-59
2022/01/05 01:34:26;;;;;;;;;;;3.70;99.90;;;;;;5071184;28;19909;-59
2022/01/05 01:36:52;;;;;;;;;;;3.70;99.90;;;;;;5073010;28;20022;-60
2022/01/05 01:39:17;;;;;;;;;;;3.70;99.90;;;;;;5072993;28;19994;-59
2022/01/05 01:41:43;;;;;;;;;;;3.70;99.90;;;;;;5071797;28;19920;-59
2022/01/05 01:44:08;;;;;;;;;;;3.70;99.90;;;;;;5073186;28;19951;-60
2022/01/05 01:46:34;;;;;;;;;;;3.60;99.90;;;;;;5073049;28;19920;-60
2022/01/05 01:48:59;;;;;;;;;;;3.60;99.90;;;;;;5071472;28;20321;-59
2022/01/05 01:51:25;;;;;;;;;;;3.60;99.90;;;;;;5071516;28;20003;-60
2022/01/05 01:53:50;;;;;;;;;;;3.60;99.90;;;;;;5072918;28;19921;-60
2022/01/05 01:56:16;;;;;;;;;;;3.70;99.90;;;;;;5072787;28;19922;-60
2022/01/05 01:58:44;;;;;;;;;;;3.60;99.90;;;;;;5073431;28;19944;-60
2022/01/05 02:01:09;;;;;;;;;;;3.60;99.90;;;;;;5070886;28;19919;-60
2022/01/05 02:03:35;;;;;;;;;;;3.60;99.90;;;;;;5072800;28;19913;-60
2022/01/05 02:06:00;;;;;;;;;;;3.60;99.90;;;;;;5072547;28;20012;-60
2022/01/05 02:08:26;;;;;;;;;;;3.60;99.90;;;;;;5071334;28;20327;-60
2022/01/05 02:10:51;;;;;;;;;;;3.60;99.90;;;;;;5073086;28;19924;-59
2022/01/05 02:13:17;;;;;;;;;;;3.60;99.90;;;;;;5070933;28;19968;-61
2022/01/05 02:15:43;;;;;;;;;;;3.50;99.90;;;;;;5073035;28;19908;-60
2022/01/05 02:18:58;;;;;;;;;;;3.50;99.90;;;;;;5072430;28;19966;-60
2022/01/05 02:21:10;;;;;;;;;;;3.60;99.90;;;;;;5072615;28;19917;-60
2022/01/05 02:23:36;;;;;;;;;;;3.60;99.90;;;;;;5061279;28;19916;-60
2022/01/05 02:26:03;;;;;;;;;;;3.60;99.90;;;;;;5072883;28;19912;-60
2022/01/05 02:28:28;;;;;;;;;;;3.50;99.90;;;;;;5071723;28;19909;-61
2022/01/05 02:30:54;;;;;;;;;;;3.50;99.90;;;;;;5070312;28;19916;-60
2022/01/05 02:33:23;;;;;;;;;;;3.50;99.90;;;;;;5072616;28;19920;-59
2022/01/05 02:35:49;;;;;;;;;;;3.50;99.90;;;;;;5072258;28;19912;-60
2022/01/05 02:38:18;;;;;;;;;;;3.50;99.90;;;;;;5072482;28;19944;-60
2022/01/05 02:40:43;;;;;;;;;;;3.50;99.90;;;;;;5072731;28;23084;-60
2022/01/05 02:43:09;;;;;;;;;;;3.50;99.90;;;;;;5070281;28;20369;-60
2022/01/05 02:45:35;;;;;;;;;;;3.50;99.90;;;;;;5072620;28;19956;-60
2022/01/05 02:48:00;;;;;;;;;;;3.50;99.90;;;;;;5071430;28;20006;-60
2022/01/05 02:50:26;;;;;;;;;;;3.40;99.90;;;;;;5072023;28;19922;-61
2022/01/05 02:52:51;;;;;;;;;;;3.40;99.90;;;;;;5072576;28;19931;-61
2022/01/05 02:55:17;;;;;;;;;;;3.50;99.90;;;;;;5070726;28;19948;-61
2022/01/05 02:57:42;;;;;;;;;;;3.50;99.90;;;;;;5072362;28;20388;-61
2022/01/05 03:00:09;;;;;;;;;;;3.40;99.90;;;;;;5071940;28;20001;-61
2022/01/05 03:02:35;;;;;;;;;;;3.50;99.90;;;;;;5072414;28;19920;-61
2022/01/05 03:05:00;;;;;;;;;;;3.40;99.90;;;;;;5072353;28;19928;-60
2022/01/05 03:07:26;;;;;;;;;;;3.40;99.90;;;;;;5070591;28;19999;-59
2022/01/05 03:09:51;;;;;;;;;;;3.40;99.90;;;;;;5070161;28;20014;-60
2022/01/05 03:12:17;;;;;;;;;;;3.40;99.90;;;;;;5072121;28;19924;-60
2022/01/05 03:14:43;;;;;;;;;;;3.40;99.90;;;;;;5072799;28;20340;-59
2022/01/05 03:17:08;;;;;;;;;;;3.50;99.90;;;;;;5076016;28;20388;-61
2022/01/05 03:19:34;;;;;;;;;;;3.50;99.90;;;;;;5074888;28;20643;-60
2022/01/05 03:21:59;;;;;;;;;;;3.40;99.90;;;;;;5074935;28;19909;-60
2022/01/05 03:24:24;;;;;;;;;;;3.40;99.90;;;;;;5072583;28;20420;-60
2022/01/05 03:26:50;;;;;;;;;;;3.40;99.90;;;;;;5074360;28;19913;-61
2022/01/05 03:29:15;;;;;;;;;;;3.40;99.90;;;;;;5075167;28;19912;-59
2022/01/05 03:31:41;;;;;;;;;;;3.40;99.90;;;;;;5075619;28;19912;-59
2022/01/05 03:34:06;;;;;;;;;;;3.30;99.90;;;;;;5073320;28;19917;-59
2022/01/05 03:36:32;;;;;;;;;;;3.30;99.90;;;;;;5075722;28;20366;-60
2022/01/05 03:38:58;;;;;;;;;;;3.30;99.90;;;;;;5075349;28;19917;-60
2022/01/05 03:41:23;;;;;;;;;;;3.30;99.90;;;;;;5075817;28;20344;-59
2022/01/05 03:43:49;;;;;;;;;;;3.40;99.90;;;;;;5074857;28;19916;-60
2022/01/05 03:46:14;;;;;;;;;;;3.30;99.90;;;;;;5073103;28;20397;-59
2022/01/05 03:48:40;;;;;;;;;;;3.40;99.90;;;;;;5074492;28;19915;-60
2022/01/05 03:51:06;;;;;;;;;;;3.40;99.90;;;;;;5074881;28;19923;-61
2022/01/05 03:53:31;;;;;;;;;;;3.40;99.90;;;;;;5075081;28;19966;-63
2022/01/05 03:55:57;;;;;;;;;;;3.40;99.90;;;;;;5075566;28;19912;-61
2022/01/05 03:58:23;;;;;;;;;;;3.40;99.90;;;;;;5072409;28;19916;-61
2022/01/05 04:00:49;;;;;;;;;;;3.40;99.90;;;;;;5075177;28;19954;-60
2022/01/05 04:03:15;;;;;;;;;;;3.40;99.90;;;;;;5075015;28;19916;-60
2022/01/05 04:05:41;;;;;;;;;;;3.40;99.90;;;;;;5074028;28;19917;-59
2022/01/05 04:08:06;;;;;;;;;;;3.30;99.90;;;;;;5074918;28;19997;-60
2022/01/05 04:10:32;;;;;;;;;;;3.30;99.90;;;;;;5074091;28;20397;-60
2022/01/05 04:12:57;;;;;;;;;;;3.30;99.90;;;;;;5073440;28;19916;-59
2022/01/05 04:15:23;;;;;;;;;;;3.30;99.90;;;;;;5074490;28;19913;-59
2022/01/05 04:17:49;;;;;;;;;;;3.30;99.90;;;;;;5074765;28;19912;-60
2022/01/05 04:20:15;;;;;;;;;;;3.20;99.90;;;;;;5074980;28;19916;-59
2022/01/05 04:22:41;;;;;;;;;;;3.20;99.90;;;;;;5074601;28;19999;-60
2022/01/05 04:25:06;;;;;;;;;;;3.20;99.90;;;;;;5072679;28;19919;-59
2022/01/05 04:27:32;;;;;;;;;;;3.30;99.90;;;;;;5071686;28;20419;-60
2022/01/05 04:29:58;;;;;;;;;;;3.30;99.90;;;;;;5074666;28;19912;-59
2022/01/05 04:32:23;;;;;;;;;;;3.30;99.90;;;;;;5056169;28;19978;-60
2022/01/05 04:34:49;;;;;;;;;;;3.30;99.90;;;;;;5074339;28;19916;-60
2022/01/05 04:37:14;;;;;;;;;;;3.30;99.90;;;;;;5072178;28;19924;-59
2022/01/05 04:39:40;;;;;;;;;;;3.30;99.90;;;;;;5074369;28;19909;-60
2022/01/05 04:42:06;;;;;;;;;;;3.30;99.90;;;;;;5074034;28;19912;-59
2022/01/05 04:44:31;;;;;;;;;;;3.30;99.90;;;;;;5072993;28;19919;-60
2022/01/05 04:46:57;;;;;;;;;;;3.30;99.90;;;;;;5074101;28;20475;-59
2022/01/05 04:49:23;;;;;;;;;;;3.30;99.90;;;;;;5071852;28;20378;-59
2022/01/05 04:51:48;;;;;;;;;;;3.30;99.90;;;;;;5073966;28;19920;-60
2022/01/05 04:54:14;;;;;;;;;;;3.30;99.90;;;;;;5074022;28;19971;-60
2022/01/05 04:56:39;;;;;;;;;;;3.30;99.90;;;;;;5073980;28;19912;-60
2022/01/05 04:59:05;;;;;;;;;;;3.30;99.90;;;;;;5073873;28;20696;-60
2022/01/05 05:01:30;;;;;;;;;;;3.30;99.90;;;;;;5072402;28;19920;-60
2022/01/05 05:03:56;;;;;;;;;;;3.30;99.90;;;;;;5073180;28;19940;-59
2022/01/05 05:06:22;;;;;;;;;;;3.30;99.90;;;;;;5072862;28;20368;-60
2022/01/05 05:08:48;;;;;;;;;;;3.30;99.90;;;;;;5073488;28;19943;-60
2022/01/05 05:11:14;;;;;;;;;;;3.30;99.90;;;;;;5073438;28;19963;-60
2022/01/05 05:13:40;;;;;;;;;;;3.30;99.90;;;;;;5073485;28;19995;-60
2022/01/05 05:16:05;;;;;;;;;;;3.20;99.90;;;;;;5071660;28;20355;-60
2022/01/05 05:18:31;;;;;;;;;;;3.20;99.90;;;;;;5073400;28;19917;-61
2022/01/05 05:20:56;;;;;;;;;;;3.20;99.90;;;;;;5073428;28;19959;-61
2022/01/05 05:23:21;;;;;;;;;;;3.20;99.90;;;;;;5072421;28;19913;-60
2022/01/05 05:25:47;;;;;;;;;;;3.20;99.90;;;;;;5073064;28;19934;-58
2022/01/05 05:28:13;;;;;;;;;;;3.30;99.90;;;;;;5070765;28;19955;-59
2022/01/05 05:30:38;;;;;;;;;;;3.30;99.90;;;;;;5073589;28;20277;-59
2022/01/05 05:33:04;;;;;;;;;;;3.30;99.90;;;;;;5073239;28;19920;-60
2022/01/05 05:35:29;;;;;;;;;;;3.30;99.90;;;;;;5072779;28;19920;-59
2022/01/05 05:37:56;;;;;;;;;;;3.30;99.90;;;;;;5073095;28;20342;-59
2022/01/05 05:40:21;;;;;;;;;;;3.30;99.90;;;;;;5071155;28;20446;-60
2022/01/05 05:42:47;;;;;;;;;;;3.20;99.90;;;;;;5073195;28;19913;-60
2022/01/05 05:45:13;;;;;;;;;;;3.20;99.90;;;;;;5072201;28;19942;-60
2022/01/05 05:47:38;;;;;;;;;;;3.20;99.90;;;;;;5072848;28;20013;-60
2022/01/05 05:50:04;;;;;;;;;;;3.30;99.90;;;;;;5073094;28;19912;-59
2022/01/05 05:52:29;;;;;;;;;;;3.30;99.90;;;;;;5071733;28;25976;-61
2022/01/05 05:54:55;;;;;;;;;;;3.30;99.90;;;;;;5072655;28;19966;-61
2022/01/05 05:57:21;;;;;;;;;;;3.30;99.90;;;;;;5072854;28;19972;-61
2022/01/05 05:59:46;;;;;;;;;;;3.30;99.90;;;;;;5073192;28;19916;-60
2022/01/05 06:02:12;;;;;;;;;;;3.30;99.90;;;;;;5071530;28;19955;-60
2022/01/05 06:04:37;;;;;;;;;;;3.30;99.90;;;;;;5072792;28;19919;-60
2022/01/05 06:07:03;;;;;;;;;;;3.30;99.90;;;;;;5071167;28;19946;-60
2022/01/05 06:09:28;;;;;;;;;;;3.40;99.90;;;;;;5072419;28;19913;-61
2022/01/05 06:11:54;;;;;;;;;;;3.30;99.90;;;;;;5072360;28;19921;-61
2022/01/05 06:14:20;;;;;;;;;;;3.30;99.90;;;;;;5072485;28;19920;-60
2022/01/05 06:16:45;;;;;;;;;;;3.30;99.90;;;;;;5054287;28;19920;-61
2022/01/05 06:19:11;;;;;;;;;;;3.30;99.90;;;;;;5069996;28;19909;-60
2022/01/05 06:21:36;;;;;;;;;;;3.30;99.90;;;;;;5072573;28;19939;-61
2022/01/05 06:24:02;;;;;;;;;;;3.30;99.90;;;;;;5070714;28;19974;-61
2022/01/05 06:26:28;;;;;;;;;;;3.30;99.90;;;;;;5072159;28;19913;-61
2022/01/05 06:28:53;;;;;;;;;;;3.30;99.90;;;;;;5072185;28;19916;-61
2022/01/05 06:31:19;;;;;;;;;;;3.30;99.90;;;;;;5066287;28;20081;-60
2022/01/05 06:33:44;;;;;;;;;;;3.40;99.90;;;;;;5072138;28;19920;-60
2022/01/05 06:36:10;;;;;;;;;;;3.30;99.90;;;;;;5072092;28;19913;-60
2022/01/05 06:38:35;;;;;;;;;;;3.30;99.90;;;;;;5072199;28;19928;-60
2022/01/05 06:41:01;;;;;;;;;;;3.40;99.90;;;;;;5070923;28;19920;-60
2022/01/05 06:43:27;;;;;;;;;;;3.30;99.90;;;;;;5070088;28;19953;-60
2022/01/05 06:45:52;;;;;;;;;;;3.40;99.90;;;;;;5071925;28;20401;-60
2022/01/05 06:48:18;;;;;;;;;;;3.40;99.90;;;;;;5070595;28;19924;-60
2022/01/05 06:50:43;;;;;;;;;;;3.30;99.90;;;;;;5074834;28;19922;-59
2022/01/05 06:53:09;;;;;;;;;;;3.30;99.90;;;;;;5075281;28;19924;-67
2022/01/05 06:55:34;;;;;;;;;;;3.30;99.90;;;;;;5075167;28;20348;-65
2022/01/05 06:58:00;;;;;;;;;;;3.40;99.90;;;;;;5074522;28;19913;-63
2022/01/05 07:00:26;;;;;;;;;;;3.30;99.90;;;;;;5074698;28;19927;-66
2022/01/05 07:02:52;;;;;;;;;;;3.30;99.90;;;;;;5075860;28;20461;-65
2022/01/05 07:05:18;;;;;;;;;;;3.30;99.90;;;;;;5074200;28;19912;-64
2022/01/05 07:07:44;;;;;;;;;;;3.30;99.90;;;;;;5075695;28;19999;-64
2022/01/05 07:10:12;;;;;;;;;;;3.30;99.90;;;;;;5073982;28;19916;-64
2022/01/05 07:12:38;;;;;;;;;;;3.30;99.90;;;;;;5076128;28;19978;-63
2022/01/05 07:15:04;;;;;;;;;;;3.30;99.90;;;;;;5075261;28;20300;-63
2022/01/05 07:17:30;;;;;;;;;;;3.30;99.90;;;;;;5073125;28;19913;-63
2022/01/05 07:19:55;;;;;;;;;;;3.30;99.90;;;;;;5074315;28;20004;-63
2022/01/05 07:22:21;;;;;;;;;;;3.30;99.90;;;;;;5073330;28;19973;-64
2022/01/05 07:24:47;;;;;;;;;;;3.20;99.90;;;;;;5075468;28;19919;-63
2022/01/05 07:27:12;;;;;;;;;;;3.20;99.90;;;;;;5075652;28;19934;-66
2022/01/05 07:29:38;;;;;;;;;;;3.20;99.90;;;;;;5074973;28;20016;-66
2022/01/05 07:32:04;;;;;;;;;;;3.20;99.90;;;;;;5075731;28;20427;-63
2022/01/05 07:34:29;;;;;;;;;;;3.20;99.90;;;;;;5055639;28;19909;-65
2022/01/05 07:36:55;;;;;;;;;;;3.20;99.90;;;;;;5074228;28;20008;-62
2022/01/05 07:39:20;;;;;;;;;;;3.20;99.90;;;;;;5075377;28;20297;-65
2022/01/05 07:41:46;;;;;;;;;;;3.20;99.90;;;;;;5074105;28;19919;-62
2022/01/05 07:44:11;;;;;;;;;;;3.20;99.90;;;;;;5074894;28;20018;-64
2022/01/05 07:46:37;;;;;;;;;;;3.20;99.90;;;;;;5074814;28;19923;-62
2022/01/05 07:49:03;;;;;;;;;;;3.20;99.90;;;;;;5073930;28;19909;-64
2022/01/05 07:51:29;;;;;;;;;;;3.20;99.90;;;;;;5075046;28;19927;-64
2022/01/05 07:53:55;;;;;;;;;;;3.10;99.90;;;;;;5074953;28;19920;-65
2022/01/05 07:56:20;;;;;;;;;;;3.10;99.90;;;;;;5075267;28;19912;-63
2022/01/05 07:58:47;;;;;;;;;;;3.10;99.90;;;;;;5073761;28;20014;-64
2022/01/05 08:01:13;;;;;;;;;;;3.10;99.90;;;;;;5072574;28;19909;-66
2022/01/05 08:03:39;;;;;;;;;;;3.10;99.90;;;;;;5073423;28;20432;-65
2022/01/05 08:06:04;;;;;;;;;;;3.20;99.90;;;;;;5073941;28;19913;-64
2022/01/05 08:08:30;;;;;;;;;;;3.20;99.90;;;;;;5074825;28;19912;-65
2022/01/05 08:10:56;;;;;;;;;;;3.20;99.90;;;;;;5074773;28;19924;-65
2022/01/05 08:13:22;;;;;;;;;;;3.20;99.90;;;;;;5072584;28;20396;-64
2022/01/05 08:15:47;;;;;;;;;;;3.20;99.90;;;;;;5075277;28;20297;-65
2022/01/05 08:18:13;;;;;;;;;;;3.30;99.90;;;;;;5074692;28;19919;-64
2022/01/05 08:20:38;;;;;;;;;;;3.30;99.90;;;;;;5073055;28;19916;-64
2022/01/05 08:23:05;;;;;;;;;;;3.30;99.90;;;;;;5051141;28;20003;-64
2022/01/05 08:25:30;;;;;;;;;;;3.40;99.90;;;;;;5073271;28;19995;-64
2022/01/05 08:27:56;;;;;;;;;;;3.40;99.90;;;;;;5073884;28;20003;-65
2022/01/05 08:30:25;;;;;;;;;;;3.40;99.90;;;;;;5074442;28;19912;-64
2022/01/05 08:32:52;;;;;;;;;;;3.40;99.90;;;;;;5074641;28;19931;-64
2022/01/05 08:35:20;;;;;;;;;;;3.40;99.90;;;;;;5074644;28;20305;-64
2022/01/05 08:37:46;;;;;;;;;;;3.50;99.90;;;;;;5073178;28;20339;-64
2022/01/05 08:40:13;;;;;;;;;;;3.50;99.90;;;;;;5071957;28;19916;-64
2022/01/05 08:42:39;;;;;;;;;;;3.40;99.90;;;;;;5074815;28;19954;-63
2022/01/05 08:45:04;;;;;;;;;;;3.50;99.90;;;;;;5074487;28;19999;-63
2022/01/05 08:47:30;;;;;;;;;;;3.50;99.90;;;;;;5073703;28;20400;-62
2022/01/05 08:49:56;;;;;;;;;;;3.50;99.90;;;;;;5074287;28;20320;-65
2022/01/05 08:52:22;;;;;;;;;;;3.60;99.90;;;;;;5071770;28;19967;-65
2022/01/05 08:54:48;;;;;;;;;;;3.60;99.90;;;;;;5074384;28;19916;-65
2022/01/05 08:57:13;;;;;;;;;;;3.50;99.90;;;;;;5073665;28;20357;-63
2022/01/05 08:59:40;;;;;;;;;;;3.60;99.90;;;;;;5072272;28;20381;-64
2022/01/05 09:02:05;;;;;;;;;;;3.60;99.90;;;;;;5073764;28;20400;-65
2022/01/05 09:04:31;;;;;;;;;;;3.50;99.90;;;;;;5072293;28;19921;-62
2022/01/05 09:06:56;;;;;;;;;;;3.60;99.90;;;;;;5073133;28;19935;-63
2022/01/05 09:09:22;;;;;;;;;;;3.50;99.90;;;;;;5073397;28;19962;-65
2022/01/05 09:11:48;;;;;;;;;;;3.60;99.90;;;;;;5073056;28;20328;-64
2022/01/05 09:14:13;;;;;;;;;;;3.60;99.90;;;;;;5073050;28;19920;-64
2022/01/05 09:16:39;;;;;;;;;;;3.60;99.90;;;;;;5072159;28;19966;-64
2022/01/05 09:19:04;;;;;;;;;;;3.60;99.90;;;;;;5071473;28;20396;-64
2022/01/05 09:21:30;;;;;;;;;;;3.60;99.90;;;;;;5073295;28;19957;-65
2022/01/05 09:23:55;;;;;;;;;;;3.60;99.90;;;;;;5073617;28;20361;-64
2022/01/05 09:26:21;;;;;;;;;;;3.50;99.90;;;;;;5073334;28;19912;-64
2022/01/05 09:28:47;;;;;;;;;;;3.50;99.90;;;;;;5073502;28;20007;-63
2022/01/05 09:31:12;;;;;;;;;;;3.60;99.90;;;;;;5070557;28;20492;-61
2022/01/05 09:33:38;;;;;;;;;;;3.70;99.90;;;;;;5073688;28;19927;-63
2022/01/05 09:36:12;;;;;;;;;;;3.70;99.90;;;;;;5073098;28;19912;-63
2022/01/05 09:44:05;;;;;;;;;;;3.90;99.90;;;;;;5073975;28;19982;-64
2022/01/05 09:46:49;;;;;;;;;;;3.80;99.90;;;;;;5071170;28;19919;-64
2022/01/05 09:49:21;;;;;;;;;;;3.90;99.90;;;;;;5067272;28;19908;-63
2022/01/05 09:51:50;;;;;;;;;;;3.90;99.90;;;;;;5072394;28;19974;-64
2022/01/05 09:54:16;;;;;;;;;;;4.00;99.90;;;;;;5073238;28;19994;-63
2022/01/05 09:56:43;;;;;;;;;;;4.00;99.90;;;;;;5071939;28;20506;-65
2022/01/05 09:59:09;;;;;;;;;;;4.00;99.90;;;;;;5073134;28;19916;-65
2022/01/05 10:01:35;;;;;;;;;;;4.00;99.90;;;;;;5071703;28;19920;-63
2022/01/05 10:04:01;;;;;;;;;;;4.10;99.90;;;;;;5071919;28;19912;-65
2022/01/05 10:06:27;;;;;;;;;;;4.10;99.90;;;;;;5073002;28;20003;-66
2022/01/05 10:08:52;;;;;;;;;;;4.10;99.90;;;;;;5072783;28;19913;-63
2022/01/05 10:11:20;;;;;;;;;;;4.10;99.90;;;;;;5073030;28;19982;-64
2022/01/05 10:13:46;;;;;;;;;;;4.10;99.90;;;;;;5072744;28;20471;-62
2022/01/05 10:16:12;;;;;;;;;;;4.20;99.90;;;;;;5070500;28;19908;-64
2022/01/05 10:18:38;;;;;;;;;;;4.30;99.90;;;;;;5073251;28;19913;-64
2022/01/05 10:21:05;;;;;;;;;;;4.30;99.90;;;;;;5072891;28;19935;-64
2022/01/05 10:23:35;;;;;;;;;;;4.40;99.90;;;;;;5073127;28;19919;-65
2022/01/05 10:26:20;;;;;;;;;;;4.50;99.90;;;;;;5077095;28;20386;-62
2022/01/05 10:28:46;;;;;;;;;;;4.50;99.90;;;;;;5061493;28;20378;-65
2022/01/05 10:31:15;;;;;;;;;;;4.60;99.90;;;;;;5075537;28;19995;-64
2022/01/05 10:33:41;;;;;;;;;;;4.60;99.90;;;;;;5075346;28;20296;-64
2022/01/05 10:36:06;;;;;;;;;;;4.70;99.90;;;;;;5076662;28;19919;-64
2022/01/05 10:38:32;;;;;;;;;;;4.70;99.90;;;;;;5076112;28;20400;-63
2022/01/05 10:40:58;;;;;;;;;;;4.80;99.90;;;;;;5076775;28;20445;-65
2022/01/05 10:43:23;;;;;;;;;;;4.70;99.90;;;;;;5074349;28;20331;-63
2022/01/05 10:45:53;;;;;;;;;;;4.70;99.90;;;;;;5076808;28;20605;-64
2022/01/05 10:48:19;;;;;;;;;;;4.70;99.90;;;;;;5076369;28;20426;-64
2022/01/05 10:50:47;;;;;;;;;;;4.70;99.90;;;;;;5076376;28;19916;-64
2022/01/05 10:53:14;;;;;;;;;;;4.80;99.90;;;;;;5076555;28;19955;-64
2022/01/05 10:55:41;;;;;;;;;;;4.90;99.90;;;;;;5059098;28;19954;-65
2022/01/05 10:58:07;;;;;;;;;;;4.90;99.90;;;;;;5073997;28;19913;-64
2022/01/05 11:00:37;;;;;;;;;;;4.90;99.90;;;;;;5076062;28;19919;-63
2022/01/05 11:03:19;;;;;;;;;;;5.00;99.90;;;;;;5076297;28;20328;-64
2022/01/05 11:06:03;;;;;;;;;;;5.10;99.90;;;;;;5075874;28;20412;-65
2022/01/05 11:08:30;;;;;;;;;;;5.10;99.90;;;;;;5075857;28;19913;-62
2022/01/05 11:10:55;;;;;;;;;;;5.20;99.90;;;;;;5075784;28;19944;-64
2022/01/05 11:13:21;;;;;;;;;;;5.10;99.90;;;;;;5073623;28;20377;-66
2022/01/05 11:15:46;;;;;;;;;;;5.10;99.90;;;;;;5074362;28;19915;-65
2022/01/05 11:18:16;;;;;;;;;;;5.10;99.90;;;;;;5075829;28;20003;-65
2022/01/05 11:20:46;;;;;;;;;;;5.10;99.90;;;;;;5064963;28;20390;-65
2022/01/05 11:23:12;;;;;;;;;;;5.10;99.90;;;;;;5075759;28;19945;-65
2022/01/05 11:25:38;;;;;;;;;;;5.20;99.90;;;;;;5075144;28;19966;-65
2022/01/05 11:28:05;;;;;;;;;;;5.20;99.90;;;;;;5073800;28;19909;-65
2022/01/05 11:30:30;;;;;;;;;;;5.20;99.90;;;;;;5075210;28;19912;-62
2022/01/05 11:32:56;;;;;;;;;;;5.20;99.90;;;;;;5076075;28;19947;-64
2022/01/05 11:35:21;;;;;;;;;;;5.20;99.90;;;;;;5073523;28;19924;-62
2022/01/05 11:37:47;;;;;;;;;;;5.30;99.90;;;;;;5075316;28;19920;-64
2022/01/05 11:40:13;;;;;;;;;;;5.40;99.90;;;;;;5073309;28;19962;-61
2022/01/05 11:42:40;;;;;;;;;;;5.40;99.90;;;;;;5075626;28;19909;-64
2022/01/05 11:45:07;;;;;;;;;;;5.40;99.90;;;;;;5075358;28;19916;-63
2022/01/05 11:47:35;;;;;;;;;;;5.40;99.90;;;;;;5074906;28;19912;-63
2022/01/05 11:50:13;;;;;;;;;;;5.40;99.90;;;;;;5075665;28;19955;-62
2022/01/05 11:52:57;;;;;;;;;;;5.40;99.90;;;;;;5073698;28;19971;-61
2022/01/05 11:55:23;;;;;;;;;;;5.40;99.90;;;;;;5070114;28;20339;-60
2022/01/05 11:58:07;;;;;;;;;;;5.50;99.90;;;;;;5074231;28;20007;-62
2022/01/05 12:00:32;;;;;;;;;;;5.50;99.90;;;;;;5074481;28;19999;-61
2022/01/05 12:02:58;;;;;;;;;;;5.50;99.90;;;;;;5074700;28;20021;-61
2022/01/05 12:05:23;;;;;;;;;;;5.50;99.90;;;;;;5074565;28;20549;-60
2022/01/05 12:07:51;;;;;;;;;;;5.50;99.90;;;;;;5074280;28;19912;-60
2022/01/05 12:10:23;;;;;;;;;;;5.50;99.90;;;;;;5071639;28;19927;-59
2022/01/05 12:12:58;;;;;;;;;;;5.50;99.90;;;;;;5072353;28;20019;-61
2022/01/05 12:15:40;;;;;;;;;;;5.60;99.90;;;;;;5066123;28;19919;-62
2022/01/05 12:18:06;;;;;;;;;;;5.60;99.90;;;;;;5069558;28;19966;-62
2022/01/05 12:20:36;;;;;;;;;;;5.60;99.90;;;;;;5069483;28;19913;-62
2022/01/05 12:23:14;;;;;;;;;;;5.60;99.90;;;;;;5070060;28;19916;-62
2022/01/05 12:25:59;;;;;;;;;;;5.70;99.90;;;;;;5069407;28;19928;-60
2022/01/05 12:28:26;;;;;;;;;;;5.70;99.90;;;;;;5069802;28;19913;-61
2022/01/05 12:30:52;;;;;;;;;;;5.70;99.90;;;;;;5069760;28;19916;-60
2022/01/05 12:33:18;;;;;;;;;;;5.80;99.90;;;;;;5068521;28;19957;-61
2022/01/05 12:35:57;;;;;;;;;;;5.80;99.90;;;;;;5068815;28;19954;-61
2022/01/05 12:38:33;;;;;;;;;;;5.90;99.90;;;;;;5066758;28;19920;-62
2022/01/05 12:41:19;;;;;;;;;;;6.00;99.90;;;;;;5067321;28;20266;-61
2022/01/05 12:43:45;;;;;;;;;;;6.10;99.90;;;;;;5068957;28;19965;-60
2022/01/05 12:46:13;;;;;;;;;;;6.20;99.90;;;;;;5070499;28;19913;-59
2022/01/05 12:48:43;;;;;;;;;;;6.20;99.90;;;;;;5068613;28;19959;-60
2022/01/05 12:51:11;;;;;;;;;;;6.20;99.90;;;;;;5069596;28;20369;-62
2022/01/05 12:53:37;;;;;;;;;;;6.30;99.90;;;;;;5069022;28;19928;-64
2022/01/05 12:56:03;;;;;;;;;;;6.30;99.90;;;;;;5069486;28;20404;-62
2022/01/05 12:58:34;;;;;;;;;;;6.30;99.90;;;;;;5068910;28;19963;-60
2022/01/05 13:01:00;;;;;;;;;;;6.40;99.90;;;;;;5069229;28;20375;-58
2022/01/05 13:03:32;;;;;;;;;;;6.60;99.90;;;;;;5069181;28;19992;-62
2022/01/05 13:06:13;;;;;;;;;;;6.50;99.90;;;;;;5067239;28;20046;-62
2022/01/05 13:08:47;;;;;;;;;;;6.60;99.90;;;;;;5058175;28;19924;-60
2022/01/05 13:11:13;;;;;;;;;;;6.60;99.90;;;;;;5054298;28;19913;-59
2022/01/05 13:13:42;;;;;;;;;;;6.50;99.90;;;;;;5053824;28;19913;-61
2022/01/05 13:16:08;;;;;;;;;;;6.50;99.90;;;;;;5056759;28;20278;-61
2022/01/05 13:18:33;;;;;;;;;;;6.40;99.90;;;;;;5055034;28;19913;-60
2022/01/05 13:20:59;;;;;;;;;;;6.40;99.90;;;;;;5056819;28;20462;-61
2022/01/05 13:23:24;;;;;;;;;;;6.30;99.90;;;;;;5055562;28;19912;-61
2022/01/05 13:25:50;;;;;;;;;;;6.30;99.90;;;;;;5053647;28;19945;-62
2022/01/05 13:28:15;;;;;;;;;;;6.30;99.90;;;;;;5055739;28;20620;-61
2022/01/05 13:30:41;;;;;;;;;;;6.30;99.90;;;;;;5057704;28;19924;-61
2022/01/05 13:33:08;;;;;;;;;;;6.50;99.90;;;;;;5055884;28;19917;-61
2022/01/05 13:35:43;;;;;;;;;;;6.50;99.90;;;;;;5055285;28;20301;-61
2022/01/05 13:38:14;;;;;;;;;;;6.60;99.90;;;;;;5054241;28;19920;-60
2022/01/05 13:40:41;;;;;;;;;;;6.50;99.90;;;;;;5052825;28;20407;-62
2022/01/05 13:43:07;;;;;;;;;;;6.50;99.90;;;;;;5059699;28;19924;-61
2022/01/05 13:45:38;;;;;;;;;;;6.40;99.90;;;;;;5054227;28;19913;-61
2022/01/05 13:48:26;;;;;;;;;;;6.40;99.90;;;;;;5055021;28;20444;-61
2022/01/05 13:51:04;;;;;;;;;;;6.40;99.90;;;;;;5055809;28;20302;-60
2022/01/05 13:53:30;;;;;;;;;;;6.30;99.90;;;;;;5054458;28;19916;-61
2022/01/05 13:56:10;;;;;;;;;;;6.30;99.90;;;;;;5054043;28;19912;-60
2022/01/05 13:58:37;;;;;;;;;;;6.30;99.90;;;;;;5052556;28;19921;-61
2022/01/05 14:01:05;;;;;;;;;;;6.40;99.90;;;;;;5056747;28;20270;-61
2022/01/05 14:03:31;;;;;;;;;;;6.40;99.90;;;;;;5054489;28;19943;-60
2022/01/05 14:05:58;;;;;;;;;;;6.50;99.90;;;;;;5056776;28;20297;-62
2022/01/05 14:08:27;;;;;;;;;;;6.40;99.90;;;;;;5068676;28;19921;-60
2022/01/05 14:11:01;;;;;;;;;;;6.40;99.90;;;;;;5072206;28;19923;-61
2022/01/05 14:13:27;;;;;;;;;;;6.40;99.90;;;;;;5073060;28;19913;-61
2022/01/05 14:15:56;;;;;;;;;;;6.30;99.90;;;;;;5077257;28;19916;-62
2022/01/05 14:18:22;;;;;;;;;;;6.30;99.90;;;;;;5052520;28;19959;-60
2022/01/05 14:20:48;;;;;;;;;;;6.20;99.90;;;;;;5062427;28;19987;-62
2022/01/05 14:23:15;;;;;;;;;;;6.20;99.90;;;;;;5058750;28;20376;-62
2022/01/05 14:25:57;;;;;;;;;;;6.20;99.90;;;;;;5059964;28;19962;-60
2022/01/05 14:28:24;;;;;;;;;;;6.20;99.90;;;;;;5060377;28;20342;-60
2022/01/05 14:30:52;;;;;;;;;;;6.20;99.90;;;;;;5062949;28;19923;-60
2022/01/05 14:33:24;;;;;;;;;;;6.30;99.90;;;;;;5059862;28;20007;-61
2022/01/05 14:35:50;;;;;;;;;;;6.30;99.90;;;;;;5063420;28;19960;-61